sensor_id;sensor_type;location;lat;lon;timestamp;P1;durP1;ratioP1;P2;durP2;ratioP2
14116;SDS011;7137;51.436;6.544;2023-05-07T00:02:47;7.93;;;6.07;;
14116;SDS011;7137;51.436;6.544;2023-05-07T00:05:49;7.47;;;5.80;;
14116;SDS011;7137;51.436;6.544;2023-05-07T00:08:52;7.97;;;6.20;;
14116;SDS011;7137;51.436;6.544;2023-05-07T00:11:54;7.03;;;5.80;;
14116;SDS011;7137;51.436;6.544;2023-05-07T00:14:57;7.53;;;6.20;;
14116;SDS011;7137;51.436;6.544;2023-05-07T00:17:58;7.83;;;6.87;;
14116;SDS011;7137;51.436;6.544;2023-05-07T00:21:00;8.30;;;6.40;;
14116;SDS011;7137;51.436;6.544;2023-05-07T00:24:01;8.13;;;6.30;;
14116;SDS011;7137;51.436;6.544;2023-05-07T00:27:03;8.43;;;6.97;;
14116;SDS011;7137;51.436;6.544;2023-05-07T00:30:07;10.17;;;7.90;;
14116;SDS011;7137;51.436;6.544;2023-05-07T00:33:09;8.60;;;7.30;;
14116;SDS011;7137;51.436;6.544;2023-05-07T00:36:10;9.23;;;6.93;;
14116;SDS011;7137;51.436;6.544;2023-05-07T00:39:12;9.13;;;6.80;;
14116;SDS011;7137;51.436;6.544;2023-05-07T00:42:13;7.70;;;6.90;;
14116;SDS011;7137;51.436;6.544;2023-05-07T00:45:17;8.70;;;7.00;;
14116;SDS011;7137;51.436;6.544;2023-05-07T00:48:19;7.63;;;6.33;;
14116;SDS011;7137;51.436;6.544;2023-05-07T00:51:21;8.23;;;6.73;;
14116;SDS011;7137;51.436;6.544;2023-05-07T00:54:23;7.43;;;6.70;;
14116;SDS011;7137;51.436;6.544;2023-05-07T00:57:24;8.20;;;7.20;;
14116;SDS011;7137;51.436;6.544;2023-05-07T01:00:28;7.97;;;6.70;;
14116;SDS011;7137;51.436;6.544;2023-05-07T01:03:29;7.17;;;6.47;;
14116;SDS011;7137;51.436;6.544;2023-05-07T01:06:31;8.67;;;6.77;;
14116;SDS011;7137;51.436;6.544;2023-05-07T01:09:33;9.13;;;7.47;;
14116;SDS011;7137;51.436;6.544;2023-05-07T01:12:36;10.40;;;7.47;;
14116;SDS011;7137;51.436;6.544;2023-05-07T01:15:40;9.27;;;7.13;;
14116;SDS011;7137;51.436;6.544;2023-05-07T01:18:42;8.90;;;7.57;;
14116;SDS011;7137;51.436;6.544;2023-05-07T01:21:44;8.63;;;7.60;;
14116;SDS011;7137;51.436;6.544;2023-05-07T01:24:49;9.37;;;7.47;;
14116;SDS011;7137;51.436;6.544;2023-05-07T01:27:51;8.33;;;7.40;;
14116;SDS011;7137;51.436;6.544;2023-05-07T01:30:54;8.07;;;7.27;;
14116;SDS011;7137;51.436;6.544;2023-05-07T01:34:03;9.10;;;8.10;;
14116;SDS011;7137;51.436;6.544;2023-05-07T01:37:08;8.30;;;7.50;;
14116;SDS011;7137;51.436;6.544;2023-05-07T01:40:12;8.70;;;7.27;;
14116;SDS011;7137;51.436;6.544;2023-05-07T01:43:14;9.17;;;7.80;;
14116;SDS011;7137;51.436;6.544;2023-05-07T01:46:15;8.43;;;7.53;;
14116;SDS011;7137;51.436;6.544;2023-05-07T01:49:18;8.63;;;7.03;;
14116;SDS011;7137;51.436;6.544;2023-05-07T01:52:20;8.80;;;7.70;;
14116;SDS011;7137;51.436;6.544;2023-05-07T01:55:23;7.93;;;7.13;;
14116;SDS011;7137;51.436;6.544;2023-05-07T01:58:27;8.70;;;7.80;;
14116;SDS011;7137;51.436;6.544;2023-05-07T02:01:29;10.27;;;8.90;;
14116;SDS011;7137;51.436;6.544;2023-05-07T02:04:30;9.37;;;7.80;;
14116;SDS011;7137;51.436;6.544;2023-05-07T02:07:32;9.87;;;8.20;;
14116;SDS011;7137;51.436;6.544;2023-05-07T02:10:35;8.63;;;7.67;;
14116;SDS011;7137;51.436;6.544;2023-05-07T02:13:37;9.07;;;8.03;;
14116;SDS011;7137;51.436;6.544;2023-05-07T02:16:38;9.23;;;8.23;;
14116;SDS011;7137;51.436;6.544;2023-05-07T02:19:40;8.70;;;7.53;;
14116;SDS011;7137;51.436;6.544;2023-05-07T02:22:42;9.37;;;8.10;;
14116;SDS011;7137;51.436;6.544;2023-05-07T02:25:45;8.87;;;7.93;;
14116;SDS011;7137;51.436;6.544;2023-05-07T02:28:47;9.93;;;8.60;;
14116;SDS011;7137;51.436;6.544;2023-05-07T02:31:48;9.40;;;8.40;;
14116;SDS011;7137;51.436;6.544;2023-05-07T02:34:50;9.97;;;8.87;;
14116;SDS011;7137;51.436;6.544;2023-05-07T02:37:52;9.43;;;7.93;;
14116;SDS011;7137;51.436;6.544;2023-05-07T02:40:55;9.73;;;8.73;;
14116;SDS011;7137;51.436;6.544;2023-05-07T02:43:56;10.77;;;8.70;;
14116;SDS011;7137;51.436;6.544;2023-05-07T02:46:58;10.63;;;8.83;;
14116;SDS011;7137;51.436;6.544;2023-05-07T02:49:59;10.37;;;9.13;;
14116;SDS011;7137;51.436;6.544;2023-05-07T02:53:01;10.50;;;8.80;;
14116;SDS011;7137;51.436;6.544;2023-05-07T02:56:05;9.93;;;8.93;;
14116;SDS011;7137;51.436;6.544;2023-05-07T02:59:07;11.20;;;8.93;;
14116;SDS011;7137;51.436;6.544;2023-05-07T03:02:09;10.93;;;9.80;;
14116;SDS011;7137;51.436;6.544;2023-05-07T03:05:11;11.43;;;9.70;;
14116;SDS011;7137;51.436;6.544;2023-05-07T03:08:14;10.77;;;9.67;;
14116;SDS011;7137;51.436;6.544;2023-05-07T03:11:17;11.30;;;9.67;;
14116;SDS011;7137;51.436;6.544;2023-05-07T03:14:18;9.63;;;8.67;;
14116;SDS011;7137;51.436;6.544;2023-05-07T03:17:20;11.10;;;9.00;;
14116;SDS011;7137;51.436;6.544;2023-05-07T03:20:22;9.43;;;8.43;;
14116;SDS011;7137;51.436;6.544;2023-05-07T03:23:23;10.43;;;9.33;;
14116;SDS011;7137;51.436;6.544;2023-05-07T03:26:26;10.47;;;9.37;;
14116;SDS011;7137;51.436;6.544;2023-05-07T03:29:28;12.03;;;10.10;;
14116;SDS011;7137;51.436;6.544;2023-05-07T03:32:29;11.57;;;10.33;;
14116;SDS011;7137;51.436;6.544;2023-05-07T03:35:31;10.87;;;9.60;;
14116;SDS011;7137;51.436;6.544;2023-05-07T03:38:32;9.90;;;8.90;;
14116;SDS011;7137;51.436;6.544;2023-05-07T03:41:35;11.27;;;10.00;;
14116;SDS011;7137;51.436;6.544;2023-05-07T03:44:37;11.00;;;9.90;;
14116;SDS011;7137;51.436;6.544;2023-05-07T03:47:38;10.70;;;9.70;;
14116;SDS011;7137;51.436;6.544;2023-05-07T03:50:40;10.30;;;9.30;;
14116;SDS011;7137;51.436;6.544;2023-05-07T03:53:41;10.67;;;9.57;;
14116;SDS011;7137;51.436;6.544;2023-05-07T03:56:44;10.20;;;9.20;;
14116;SDS011;7137;51.436;6.544;2023-05-07T03:59:46;12.20;;;11.00;;
14116;SDS011;7137;51.436;6.544;2023-05-07T04:02:48;12.10;;;10.23;;
14116;SDS011;7137;51.436;6.544;2023-05-07T04:05:49;11.93;;;10.70;;
14116;SDS011;7137;51.436;6.544;2023-05-07T04:08:51;11.67;;;10.47;;
14116;SDS011;7137;51.436;6.544;2023-05-07T04:11:54;12.73;;;10.33;;
14116;SDS011;7137;51.436;6.544;2023-05-07T04:14:55;11.50;;;10.30;;
14116;SDS011;7137;51.436;6.544;2023-05-07T04:17:57;10.53;;;9.43;;
14116;SDS011;7137;51.436;6.544;2023-05-07T04:20:58;11.10;;;10.00;;
14116;SDS011;7137;51.436;6.544;2023-05-07T04:24:00;11.07;;;9.97;;
14116;SDS011;7137;51.436;6.544;2023-05-07T04:27:03;12.63;;;9.93;;
14116;SDS011;7137;51.436;6.544;2023-05-07T04:30:05;11.33;;;10.23;;
14116;SDS011;7137;51.436;6.544;2023-05-07T04:33:07;10.73;;;9.63;;
14116;SDS011;7137;51.436;6.544;2023-05-07T04:36:08;10.70;;;9.60;;
14116;SDS011;7137;51.436;6.544;2023-05-07T04:39:10;10.27;;;9.20;;
14116;SDS011;7137;51.436;6.544;2023-05-07T04:42:15;10.17;;;9.17;;
14116;SDS011;7137;51.436;6.544;2023-05-07T04:45:17;10.27;;;8.83;;
14116;SDS011;7137;51.436;6.544;2023-05-07T04:48:19;10.43;;;9.00;;
14116;SDS011;7137;51.436;6.544;2023-05-07T04:51:20;10.57;;;9.33;;
14116;SDS011;7137;51.436;6.544;2023-05-07T04:54:22;10.43;;;9.37;;
14116;SDS011;7137;51.436;6.544;2023-05-07T04:57:25;9.57;;;8.53;;
14116;SDS011;7137;51.436;6.544;2023-05-07T05:00:26;11.00;;;9.43;;
14116;SDS011;7137;51.436;6.544;2023-05-07T05:03:28;10.07;;;9.07;;
14116;SDS011;7137;51.436;6.544;2023-05-07T05:06:30;10.13;;;9.13;;
14116;SDS011;7137;51.436;6.544;2023-05-07T05:09:32;12.47;;;8.73;;
14116;SDS011;7137;51.436;6.544;2023-05-07T05:12:35;9.63;;;7.80;;
14116;SDS011;7137;51.436;6.544;2023-05-07T05:15:36;9.03;;;7.60;;
14116;SDS011;7137;51.436;6.544;2023-05-07T05:18:38;9.90;;;8.10;;
14116;SDS011;7137;51.436;6.544;2023-05-07T05:21:40;9.00;;;7.67;;
14116;SDS011;7137;51.436;6.544;2023-05-07T05:24:42;9.07;;;6.77;;
14116;SDS011;7137;51.436;6.544;2023-05-07T05:27:45;8.50;;;6.80;;
14116;SDS011;7137;51.436;6.544;2023-05-07T05:30:47;8.37;;;6.43;;
14116;SDS011;7137;51.436;6.544;2023-05-07T05:33:48;9.47;;;6.80;;
14116;SDS011;7137;51.436;6.544;2023-05-07T05:36:50;8.47;;;6.80;;
14116;SDS011;7137;51.436;6.544;2023-05-07T05:39:51;9.33;;;6.60;;
14116;SDS011;7137;51.436;6.544;2023-05-07T05:42:56;8.23;;;6.03;;
14116;SDS011;7137;51.436;6.544;2023-05-07T05:45:57;8.00;;;6.20;;
14116;SDS011;7137;51.436;6.544;2023-05-07T05:48:59;7.90;;;5.63;;
14116;SDS011;7137;51.436;6.544;2023-05-07T05:52:00;7.03;;;5.17;;
14116;SDS011;7137;51.436;6.544;2023-05-07T05:55:03;7.77;;;5.53;;
14116;SDS011;7137;51.436;6.544;2023-05-07T05:58:07;7.23;;;4.63;;
14116;SDS011;7137;51.436;6.544;2023-05-07T06:01:09;7.63;;;4.60;;
14116;SDS011;7137;51.436;6.544;2023-05-07T06:04:12;6.10;;;4.50;;
14116;SDS011;7137;51.436;6.544;2023-05-07T06:07:13;6.93;;;4.50;;
14116;SDS011;7137;51.436;6.544;2023-05-07T06:10:15;6.43;;;4.27;;
14116;SDS011;7137;51.436;6.544;2023-05-07T06:13:17;7.57;;;5.10;;
14116;SDS011;7137;51.436;6.544;2023-05-07T06:16:19;6.90;;;4.93;;
14116;SDS011;7137;51.436;6.544;2023-05-07T06:19:20;6.70;;;4.87;;
14116;SDS011;7137;51.436;6.544;2023-05-07T06:22:23;7.13;;;4.87;;
14116;SDS011;7137;51.436;6.544;2023-05-07T06:25:25;6.53;;;4.70;;
14116;SDS011;7137;51.436;6.544;2023-05-07T06:28:28;7.23;;;4.70;;
14116;SDS011;7137;51.436;6.544;2023-05-07T06:31:35;7.20;;;4.80;;
14116;SDS011;7137;51.436;6.544;2023-05-07T06:34:37;7.17;;;4.90;;
14116;SDS011;7137;51.436;6.544;2023-05-07T06:37:40;6.70;;;5.43;;
14116;SDS011;7137;51.436;6.544;2023-05-07T06:40:42;7.77;;;5.20;;
14116;SDS011;7137;51.436;6.544;2023-05-07T06:43:45;8.63;;;5.17;;
14116;SDS011;7137;51.436;6.544;2023-05-07T06:46:46;6.93;;;4.77;;
14116;SDS011;7137;51.436;6.544;2023-05-07T06:49:48;7.37;;;5.50;;
14116;SDS011;7137;51.436;6.544;2023-05-07T06:52:50;8.33;;;6.17;;
14116;SDS011;7137;51.436;6.544;2023-05-07T06:55:51;8.03;;;5.97;;
14116;SDS011;7137;51.436;6.544;2023-05-07T06:58:54;8.27;;;5.70;;
14116;SDS011;7137;51.436;6.544;2023-05-07T07:01:56;7.57;;;5.47;;
14116;SDS011;7137;51.436;6.544;2023-05-07T07:04:57;7.47;;;5.70;;
14116;SDS011;7137;51.436;6.544;2023-05-07T07:07:59;8.03;;;5.80;;
14116;SDS011;7137;51.436;6.544;2023-05-07T07:11:01;7.97;;;5.87;;
14116;SDS011;7137;51.436;6.544;2023-05-07T07:14:04;8.40;;;6.50;;
14116;SDS011;7137;51.436;6.544;2023-05-07T07:17:06;8.27;;;6.20;;
14116;SDS011;7137;51.436;6.544;2023-05-07T07:20:08;7.70;;;5.90;;
14116;SDS011;7137;51.436;6.544;2023-05-07T07:23:10;8.47;;;6.23;;
14116;SDS011;7137;51.436;6.544;2023-05-07T07:26:12;9.47;;;6.43;;
14116;SDS011;7137;51.436;6.544;2023-05-07T07:29:15;8.60;;;5.77;;
14116;SDS011;7137;51.436;6.544;2023-05-07T07:32:16;9.50;;;5.60;;
14116;SDS011;7137;51.436;6.544;2023-05-07T07:35:18;8.50;;;5.80;;
14116;SDS011;7137;51.436;6.544;2023-05-07T07:38:19;7.43;;;5.00;;
14116;SDS011;7137;51.436;6.544;2023-05-07T07:41:21;7.93;;;5.50;;
14116;SDS011;7137;51.436;6.544;2023-05-07T07:44:24;6.77;;;4.60;;
14116;SDS011;7137;51.436;6.544;2023-05-07T07:47:25;9.20;;;4.50;;
14116;SDS011;7137;51.436;6.544;2023-05-07T07:50:27;7.17;;;4.40;;
14116;SDS011;7137;51.436;6.544;2023-05-07T07:53:28;8.30;;;4.40;;
14116;SDS011;7137;51.436;6.544;2023-05-07T07:56:31;7.70;;;4.23;;
14116;SDS011;7137;51.436;6.544;2023-05-07T07:59:35;6.67;;;4.37;;
14116;SDS011;7137;51.436;6.544;2023-05-07T08:02:37;7.57;;;4.20;;
14116;SDS011;7137;51.436;6.544;2023-05-07T08:05:38;6.57;;;4.20;;
14116;SDS011;7137;51.436;6.544;2023-05-07T08:08:40;6.77;;;4.17;;
14116;SDS011;7137;51.436;6.544;2023-05-07T08:11:41;8.73;;;4.37;;
14116;SDS011;7137;51.436;6.544;2023-05-07T08:14:44;5.80;;;4.03;;
14116;SDS011;7137;51.436;6.544;2023-05-07T08:17:46;5.73;;;3.23;;
14116;SDS011;7137;51.436;6.544;2023-05-07T08:20:47;5.77;;;3.57;;
14116;SDS011;7137;51.436;6.544;2023-05-07T08:23:49;5.40;;;3.57;;
14116;SDS011;7137;51.436;6.544;2023-05-07T08:26:50;6.43;;;3.70;;
14116;SDS011;7137;51.436;6.544;2023-05-07T08:29:53;7.13;;;3.60;;
14116;SDS011;7137;51.436;6.544;2023-05-07T08:32:55;5.63;;;2.83;;
14116;SDS011;7137;51.436;6.544;2023-05-07T08:35:56;6.13;;;3.30;;
14116;SDS011;7137;51.436;6.544;2023-05-07T08:38:58;5.87;;;3.17;;
14116;SDS011;7137;51.436;6.544;2023-05-07T08:42:01;6.00;;;3.67;;
14116;SDS011;7137;51.436;6.544;2023-05-07T08:45:07;6.20;;;3.37;;
14116;SDS011;7137;51.436;6.544;2023-05-07T08:48:14;5.77;;;2.87;;
14116;SDS011;7137;51.436;6.544;2023-05-07T08:51:18;6.50;;;3.60;;
14116;SDS011;7137;51.436;6.544;2023-05-07T08:54:21;6.77;;;3.53;;
14116;SDS011;7137;51.436;6.544;2023-05-07T08:57:22;6.47;;;3.50;;
14116;SDS011;7137;51.436;6.544;2023-05-07T09:00:25;6.00;;;3.60;;
14116;SDS011;7137;51.436;6.544;2023-05-07T09:03:27;5.80;;;3.77;;
14116;SDS011;7137;51.436;6.544;2023-05-07T09:06:29;6.00;;;3.30;;
14116;SDS011;7137;51.436;6.544;2023-05-07T09:09:31;6.00;;;3.43;;
14116;SDS011;7137;51.436;6.544;2023-05-07T09:12:33;5.10;;;3.20;;
14116;SDS011;7137;51.436;6.544;2023-05-07T09:15:37;5.43;;;3.20;;
14116;SDS011;7137;51.436;6.544;2023-05-07T09:18:42;5.90;;;3.10;;
14116;SDS011;7137;51.436;6.544;2023-05-07T09:21:44;4.97;;;2.80;;
14116;SDS011;7137;51.436;6.544;2023-05-07T09:24:47;5.10;;;3.10;;
14116;SDS011;7137;51.436;6.544;2023-05-07T09:27:49;5.73;;;3.17;;
14116;SDS011;7137;51.436;6.544;2023-05-07T09:30:53;7.97;;;3.50;;
14116;SDS011;7137;51.436;6.544;2023-05-07T09:33:56;6.83;;;3.70;;
14116;SDS011;7137;51.436;6.544;2023-05-07T09:36:58;8.50;;;4.50;;
14116;SDS011;7137;51.436;6.544;2023-05-07T09:40:00;7.93;;;4.90;;
14116;SDS011;7137;51.436;6.544;2023-05-07T09:43:10;8.43;;;4.97;;
14116;SDS011;7137;51.436;6.544;2023-05-07T09:46:14;6.77;;;4.90;;
14116;SDS011;7137;51.436;6.544;2023-05-07T09:49:19;8.50;;;5.13;;
14116;SDS011;7137;51.436;6.544;2023-05-07T09:52:22;6.93;;;4.83;;
14116;SDS011;7137;51.436;6.544;2023-05-07T09:55:24;7.30;;;3.80;;
14116;SDS011;7137;51.436;6.544;2023-05-07T09:58:26;6.50;;;3.50;;
14116;SDS011;7137;51.436;6.544;2023-05-07T10:01:31;5.87;;;2.67;;
14116;SDS011;7137;51.436;6.544;2023-05-07T10:04:36;5.53;;;2.53;;
14116;SDS011;7137;51.436;6.544;2023-05-07T10:07:39;4.97;;;2.77;;
14116;SDS011;7137;51.436;6.544;2023-05-07T10:10:41;5.27;;;2.50;;
14116;SDS011;7137;51.436;6.544;2023-05-07T10:13:42;5.07;;;2.63;;
14116;SDS011;7137;51.436;6.544;2023-05-07T10:16:46;7.20;;;3.37;;
14116;SDS011;7137;51.436;6.544;2023-05-07T10:19:49;11.10;;;5.80;;
14116;SDS011;7137;51.436;6.544;2023-05-07T10:22:51;6.63;;;4.37;;
14116;SDS011;7137;51.436;6.544;2023-05-07T10:25:57;5.93;;;3.20;;
14116;SDS011;7137;51.436;6.544;2023-05-07T10:29:01;5.83;;;3.10;;
14116;SDS011;7137;51.436;6.544;2023-05-07T10:32:14;5.80;;;2.63;;
14116;SDS011;7137;51.436;6.544;2023-05-07T10:35:36;5.60;;;2.73;;
14116;SDS011;7137;51.436;6.544;2023-05-07T10:38:40;6.00;;;3.10;;
14116;SDS011;7137;51.436;6.544;2023-05-07T10:41:42;6.93;;;3.10;;
14116;SDS011;7137;51.436;6.544;2023-05-07T10:44:43;6.40;;;3.27;;
14116;SDS011;7137;51.436;6.544;2023-05-07T10:51:20;5.63;;;2.47;;
14116;SDS011;7137;51.436;6.544;2023-05-07T10:54:22;5.77;;;2.87;;
14116;SDS011;7137;51.436;6.544;2023-05-07T10:57:32;5.77;;;3.00;;
14116;SDS011;7137;51.436;6.544;2023-05-07T11:00:41;5.50;;;3.00;;
14116;SDS011;7137;51.436;6.544;2023-05-07T11:07:27;5.23;;;2.63;;
14116;SDS011;7137;51.436;6.544;2023-05-07T11:10:48;4.40;;;2.47;;
14116;SDS011;7137;51.436;6.544;2023-05-07T11:13:51;7.17;;;2.93;;
14116;SDS011;7137;51.436;6.544;2023-05-07T11:16:54;6.57;;;2.73;;
14116;SDS011;7137;51.436;6.544;2023-05-07T11:20:05;4.90;;;2.60;;
14116;SDS011;7137;51.436;6.544;2023-05-07T11:23:07;5.57;;;2.60;;
14116;SDS011;7137;51.436;6.544;2023-05-07T11:26:09;6.30;;;2.80;;
14116;SDS011;7137;51.436;6.544;2023-05-07T11:29:12;5.67;;;2.80;;
14116;SDS011;7137;51.436;6.544;2023-05-07T11:32:15;5.60;;;2.63;;
14116;SDS011;7137;51.436;6.544;2023-05-07T11:35:24;4.70;;;2.60;;
14116;SDS011;7137;51.436;6.544;2023-05-07T11:38:26;6.50;;;3.00;;
14116;SDS011;7137;51.436;6.544;2023-05-07T11:41:36;4.93;;;2.90;;
14116;SDS011;7137;51.436;6.544;2023-05-07T11:44:41;4.47;;;2.60;;
14116;SDS011;7137;51.436;6.544;2023-05-07T11:47:45;4.50;;;2.37;;
14116;SDS011;7137;51.436;6.544;2023-05-07T11:50:51;3.73;;;2.00;;
14116;SDS011;7137;51.436;6.544;2023-05-07T11:53:54;3.87;;;2.37;;
14116;SDS011;7137;51.436;6.544;2023-05-07T11:56:55;4.20;;;2.40;;
14116;SDS011;7137;51.436;6.544;2023-05-07T11:59:58;4.77;;;2.30;;
14116;SDS011;7137;51.436;6.544;2023-05-07T12:03:03;5.87;;;2.67;;
14116;SDS011;7137;51.436;6.544;2023-05-07T12:06:07;4.50;;;2.20;;
14116;SDS011;7137;51.436;6.544;2023-05-07T12:09:08;4.80;;;2.30;;
14116;SDS011;7137;51.436;6.544;2023-05-07T12:12:11;6.10;;;2.53;;
14116;SDS011;7137;51.436;6.544;2023-05-07T12:15:15;4.10;;;2.10;;
14116;SDS011;7137;51.436;6.544;2023-05-07T12:18:17;3.60;;;1.90;;
14116;SDS011;7137;51.436;6.544;2023-05-07T12:21:20;4.77;;;2.10;;
14116;SDS011;7137;51.436;6.544;2023-05-07T12:24:22;3.53;;;2.10;;
14116;SDS011;7137;51.436;6.544;2023-05-07T12:27:25;4.57;;;2.20;;
14116;SDS011;7137;51.436;6.544;2023-05-07T12:30:27;3.93;;;1.87;;
14116;SDS011;7137;51.436;6.544;2023-05-07T12:33:29;3.63;;;1.90;;
14116;SDS011;7137;51.436;6.544;2023-05-07T12:36:42;5.23;;;2.40;;
14116;SDS011;7137;51.436;6.544;2023-05-07T12:39:44;4.50;;;2.53;;
14116;SDS011;7137;51.436;6.544;2023-05-07T12:42:46;4.70;;;2.50;;
14116;SDS011;7137;51.436;6.544;2023-05-07T12:45:48;5.57;;;2.60;;
14116;SDS011;7137;51.436;6.544;2023-05-07T12:48:51;3.63;;;2.50;;
14116;SDS011;7137;51.436;6.544;2023-05-07T12:51:55;5.20;;;3.00;;
14116;SDS011;7137;51.436;6.544;2023-05-07T12:54:56;5.67;;;2.60;;
14116;SDS011;7137;51.436;6.544;2023-05-07T12:58:00;4.20;;;2.50;;
14116;SDS011;7137;51.436;6.544;2023-05-07T13:01:04;4.53;;;2.60;;
14116;SDS011;7137;51.436;6.544;2023-05-07T13:04:06;4.87;;;2.70;;
14116;SDS011;7137;51.436;6.544;2023-05-07T13:07:09;5.47;;;3.07;;
14116;SDS011;7137;51.436;6.544;2023-05-07T13:10:10;4.60;;;2.60;;
14116;SDS011;7137;51.436;6.544;2023-05-07T13:13:12;4.33;;;2.60;;
14116;SDS011;7137;51.436;6.544;2023-05-07T13:16:13;4.70;;;2.57;;
14116;SDS011;7137;51.436;6.544;2023-05-07T13:19:15;4.73;;;2.63;;
14116;SDS011;7137;51.436;6.544;2023-05-07T13:22:18;4.20;;;2.40;;
14116;SDS011;7137;51.436;6.544;2023-05-07T13:25:20;4.20;;;2.03;;
14116;SDS011;7137;51.436;6.544;2023-05-07T13:28:21;4.07;;;2.07;;
14116;SDS011;7137;51.436;6.544;2023-05-07T13:31:23;4.87;;;2.47;;
14116;SDS011;7137;51.436;6.544;2023-05-07T13:34:25;6.23;;;2.40;;
14116;SDS011;7137;51.436;6.544;2023-05-07T13:37:28;3.53;;;2.00;;
14116;SDS011;7137;51.436;6.544;2023-05-07T13:40:29;4.03;;;1.90;;
14116;SDS011;7137;51.436;6.544;2023-05-07T13:43:31;2.80;;;1.97;;
14116;SDS011;7137;51.436;6.544;2023-05-07T13:46:33;6.63;;;2.43;;
14116;SDS011;7137;51.436;6.544;2023-05-07T13:49:35;4.13;;;2.10;;
14116;SDS011;7137;51.436;6.544;2023-05-07T13:52:38;4.47;;;2.50;;
14116;SDS011;7137;51.436;6.544;2023-05-07T13:55:40;4.70;;;2.67;;
14116;SDS011;7137;51.436;6.544;2023-05-07T13:58:41;4.23;;;2.37;;
14116;SDS011;7137;51.436;6.544;2023-05-07T14:01:43;4.53;;;2.40;;
14116;SDS011;7137;51.436;6.544;2023-05-07T14:04:44;4.53;;;2.23;;
14116;SDS011;7137;51.436;6.544;2023-05-07T14:07:47;4.17;;;2.30;;
14116;SDS011;7137;51.436;6.544;2023-05-07T14:10:51;4.37;;;2.43;;
14116;SDS011;7137;51.436;6.544;2023-05-07T14:13:53;3.83;;;2.10;;
14116;SDS011;7137;51.436;6.544;2023-05-07T14:16:55;4.67;;;2.60;;
14116;SDS011;7137;51.436;6.544;2023-05-07T14:19:57;4.43;;;2.60;;
14116;SDS011;7137;51.436;6.544;2023-05-07T14:23:00;4.40;;;2.40;;
14116;SDS011;7137;51.436;6.544;2023-05-07T14:26:02;3.30;;;2.20;;
14116;SDS011;7137;51.436;6.544;2023-05-07T14:29:04;4.70;;;2.60;;
14116;SDS011;7137;51.436;6.544;2023-05-07T14:32:05;4.93;;;2.90;;
14116;SDS011;7137;51.436;6.544;2023-05-07T14:35:07;4.53;;;3.00;;
14116;SDS011;7137;51.436;6.544;2023-05-07T14:38:10;4.60;;;2.70;;
14116;SDS011;7137;51.436;6.544;2023-05-07T14:41:12;4.60;;;3.00;;
14116;SDS011;7137;51.436;6.544;2023-05-07T14:44:14;4.40;;;2.90;;
14116;SDS011;7137;51.436;6.544;2023-05-07T14:47:15;4.33;;;3.00;;
14116;SDS011;7137;51.436;6.544;2023-05-07T14:50:17;5.70;;;3.20;;
14116;SDS011;7137;51.436;6.544;2023-05-07T14:53:20;4.50;;;3.13;;
14116;SDS011;7137;51.436;6.544;2023-05-07T14:56:21;5.70;;;3.60;;
14116;SDS011;7137;51.436;6.544;2023-05-07T14:59:23;5.50;;;3.50;;
14116;SDS011;7137;51.436;6.544;2023-05-07T15:02:25;5.90;;;3.43;;
14116;SDS011;7137;51.436;6.544;2023-05-07T15:05:26;6.40;;;3.87;;
14116;SDS011;7137;51.436;6.544;2023-05-07T15:08:29;5.87;;;3.50;;
14116;SDS011;7137;51.436;6.544;2023-05-07T15:11:31;5.97;;;3.70;;
14116;SDS011;7137;51.436;6.544;2023-05-07T15:14:32;5.87;;;3.70;;
14116;SDS011;7137;51.436;6.544;2023-05-07T15:17:34;5.53;;;3.63;;
14116;SDS011;7137;51.436;6.544;2023-05-07T15:20:36;6.13;;;3.80;;
14116;SDS011;7137;51.436;6.544;2023-05-07T15:23:39;6.63;;;3.90;;
14116;SDS011;7137;51.436;6.544;2023-05-07T15:26:41;7.00;;;4.03;;
14116;SDS011;7137;51.436;6.544;2023-05-07T15:29:42;6.70;;;4.40;;
14116;SDS011;7137;51.436;6.544;2023-05-07T15:32:44;5.40;;;3.53;;
14116;SDS011;7137;51.436;6.544;2023-05-07T15:35:46;5.90;;;3.20;;
14116;SDS011;7137;51.436;6.544;2023-05-07T15:38:48;5.60;;;3.53;;
14116;SDS011;7137;51.436;6.544;2023-05-07T15:41:50;5.23;;;3.47;;
14116;SDS011;7137;51.436;6.544;2023-05-07T15:44:51;5.33;;;3.60;;
14116;SDS011;7137;51.436;6.544;2023-05-07T15:47:53;5.47;;;3.40;;
14116;SDS011;7137;51.436;6.544;2023-05-07T15:50:54;5.67;;;3.30;;
14116;SDS011;7137;51.436;6.544;2023-05-07T15:53:57;4.40;;;2.97;;
14116;SDS011;7137;51.436;6.544;2023-05-07T15:56:59;5.60;;;3.43;;
14116;SDS011;7137;51.436;6.544;2023-05-07T16:00:01;4.43;;;3.17;;
14116;SDS011;7137;51.436;6.544;2023-05-07T16:03:05;5.60;;;3.50;;
14116;SDS011;7137;51.436;6.544;2023-05-07T16:06:08;5.60;;;3.40;;
14116;SDS011;7137;51.436;6.544;2023-05-07T16:09:12;5.37;;;3.50;;
14116;SDS011;7137;51.436;6.544;2023-05-07T16:12:15;6.00;;;3.70;;
14116;SDS011;7137;51.436;6.544;2023-05-07T16:15:17;5.83;;;4.30;;
14116;SDS011;7137;51.436;6.544;2023-05-07T16:18:19;5.90;;;4.10;;
14116;SDS011;7137;51.436;6.544;2023-05-07T16:21:20;6.70;;;4.40;;
14116;SDS011;7137;51.436;6.544;2023-05-07T16:24:23;6.27;;;4.80;;
14116;SDS011;7137;51.436;6.544;2023-05-07T16:27:25;5.83;;;4.60;;
14116;SDS011;7137;51.436;6.544;2023-05-07T16:30:26;6.20;;;4.13;;
14116;SDS011;7137;51.436;6.544;2023-05-07T16:33:27;6.23;;;4.17;;
14116;SDS011;7137;51.436;6.544;2023-05-07T16:36:29;7.07;;;5.10;;
14116;SDS011;7137;51.436;6.544;2023-05-07T16:39:33;6.20;;;4.60;;
14116;SDS011;7137;51.436;6.544;2023-05-07T16:42:34;4.87;;;3.30;;
14116;SDS011;7137;51.436;6.544;2023-05-07T16:45:36;5.67;;;3.80;;
14116;SDS011;7137;51.436;6.544;2023-05-07T16:48:38;5.97;;;4.10;;
14116;SDS011;7137;51.436;6.544;2023-05-07T16:51:39;5.63;;;3.80;;
14116;SDS011;7137;51.436;6.544;2023-05-07T16:54:43;5.70;;;3.83;;
14116;SDS011;7137;51.436;6.544;2023-05-07T16:57:46;6.03;;;4.13;;
14116;SDS011;7137;51.436;6.544;2023-05-07T17:00:47;5.93;;;4.00;;
14116;SDS011;7137;51.436;6.544;2023-05-07T17:03:49;7.27;;;4.30;;
14116;SDS011;7137;51.436;6.544;2023-05-07T17:06:50;5.33;;;3.60;;
14116;SDS011;7137;51.436;6.544;2023-05-07T17:09:53;5.23;;;3.63;;
14116;SDS011;7137;51.436;6.544;2023-05-07T17:12:55;6.10;;;3.90;;
14116;SDS011;7137;51.436;6.544;2023-05-07T17:15:57;7.00;;;4.27;;
14116;SDS011;7137;51.436;6.544;2023-05-07T17:18:58;8.60;;;4.50;;
14116;SDS011;7137;51.436;6.544;2023-05-07T17:22:00;5.20;;;4.03;;
14116;SDS011;7137;51.436;6.544;2023-05-07T17:25:03;5.67;;;4.00;;
14116;SDS011;7137;51.436;6.544;2023-05-07T17:28:05;6.63;;;4.13;;
14116;SDS011;7137;51.436;6.544;2023-05-07T17:31:07;6.03;;;3.80;;
14116;SDS011;7137;51.436;6.544;2023-05-07T17:34:08;6.30;;;4.47;;
14116;SDS011;7137;51.436;6.544;2023-05-07T17:37:10;6.17;;;4.80;;
14116;SDS011;7137;51.436;6.544;2023-05-07T17:40:13;6.70;;;4.47;;
14116;SDS011;7137;51.436;6.544;2023-05-07T17:43:15;6.00;;;4.43;;
14116;SDS011;7137;51.436;6.544;2023-05-07T17:46:17;5.93;;;4.70;;
14116;SDS011;7137;51.436;6.544;2023-05-07T17:49:18;7.83;;;5.30;;
14116;SDS011;7137;51.436;6.544;2023-05-07T17:52:20;6.00;;;4.77;;
14116;SDS011;7137;51.436;6.544;2023-05-07T17:55:24;5.93;;;4.90;;
14116;SDS011;7137;51.436;6.544;2023-05-07T17:58:26;7.13;;;5.40;;
14116;SDS011;7137;51.436;6.544;2023-05-07T18:01:27;6.67;;;5.33;;
14116;SDS011;7137;51.436;6.544;2023-05-07T18:04:29;6.60;;;5.57;;
14116;SDS011;7137;51.436;6.544;2023-05-07T18:07:31;7.10;;;6.40;;
14116;SDS011;7137;51.436;6.544;2023-05-07T18:10:33;8.13;;;6.80;;
14116;SDS011;7137;51.436;6.544;2023-05-07T18:13:35;7.63;;;6.77;;
14116;SDS011;7137;51.436;6.544;2023-05-07T18:16:37;7.53;;;6.60;;
14116;SDS011;7137;51.436;6.544;2023-05-07T18:19:38;6.93;;;6.20;;
14116;SDS011;7137;51.436;6.544;2023-05-07T18:22:40;7.40;;;5.47;;
14116;SDS011;7137;51.436;6.544;2023-05-07T18:25:43;6.97;;;6.27;;
14116;SDS011;7137;51.436;6.544;2023-05-07T18:28:44;6.90;;;5.97;;
14116;SDS011;7137;51.436;6.544;2023-05-07T18:31:46;8.20;;;6.23;;
14116;SDS011;7137;51.436;6.544;2023-05-07T18:34:47;7.13;;;5.90;;
14116;SDS011;7137;51.436;6.544;2023-05-07T18:37:49;6.63;;;5.73;;
14116;SDS011;7137;51.436;6.544;2023-05-07T18:40:52;6.13;;;5.50;;
14116;SDS011;7137;51.436;6.544;2023-05-07T18:43:53;6.43;;;5.73;;